Terminal Aerodrome Forecast
Issued by NWS

Home | Current Version | Previous Version | Text Only | Print | Product List | Glossary On
Versions: 1 2 3 4 5 6 7 8 9 10 11 12 13
000
FTUS46 KMFR 041120
TAFRBG
TAF
KRBG 041120Z 0412/0512 VRB03KT P6SM VCSH OVC009
     FM042200 36008KT P6SM -SHRA SCT015 OVC025
     FM050200 VRB03KT P6SM VCSH OVC015=

USA.gov is the U.S. government's official web portal to all federal, state and local government web resources and services.